Time;durP1;ratioP1;P1;durP2;ratioP2;P2;SDS_P1;SDS_P2;PMS_P1;PMS_P2;Temp;Humidity;BMP_temperature;BMP_pressure;BME280_temperature;BME280_humidity;BME280_pressure;Samples;Min_cycle;Max_cycle;Signal;HPM_P1;HPM_P2
2024/04/19 00:00:21;;;;;;;9.75;2.63;;;;;;;-141.50;100.00;63355.56;5399177;26;20519;-81
2024/04/19 00:02:48;;;;;;;6.57;2.25;;;;;;;-141.50;100.00;63355.56;5390538;26;20303;-79
2024/04/19 00:05:15;;;;;;;4.00;2.55;;;;;;;-141.50;100.00;63355.56;5404826;26;20126;-81
2024/04/19 00:07:42;;;;;;;10.90;2.40;;;;;;;-141.50;100.00;63355.56;5411047;26;20061;-80
2024/04/19 00:10:10;;;;;;;4.38;2.30;;;;;;;-141.50;100.00;63355.56;5386526;26;20333;-80
2024/04/19 00:12:38;;;;;;;7.75;2.72;;;;;;;-141.50;100.00;63355.56;5410554;26;20008;-81
2024/04/19 00:15:06;;;;;;;5.25;2.30;;;;;;;-141.50;100.00;63355.56;5390391;26;20004;-81
2024/04/19 00:17:34;;;;;;;6.97;2.33;;;;;;;-141.50;100.00;63355.56;5391128;26;20000;-82
2024/04/19 00:20:01;;;;;;;4.30;2.30;;;;;;;-141.50;100.00;63355.56;5397035;26;20019;-83
2024/04/19 00:22:29;;;;;;;8.40;2.22;;;;;;;-141.50;100.00;63355.56;5406413;26;20004;-82
2024/04/19 00:24:58;;;;;;;7.25;2.28;;;;;;;-141.50;100.00;63355.56;5393736;26;20000;-82
2024/04/19 00:27:25;;;;;;;7.68;2.55;;;;;;;-141.50;100.00;63355.56;5405403;26;20008;-81
2024/04/19 00:29:52;;;;;;;4.60;2.38;;;;;;;-141.50;100.00;63355.56;5377706;26;20014;-80
2024/04/19 00:32:19;;;;;;;4.82;2.38;;;;;;;-141.50;100.00;63355.56;5395977;26;20088;-81
2024/04/19 00:34:46;;;;;;;5.72;2.45;;;;;;;-141.50;100.00;63355.56;5381462;26;20001;-81
2024/04/19 00:37:13;;;;;;;4.45;2.25;;;;;;;-141.50;100.00;63355.56;5386340;26;20004;-81
2024/04/19 00:39:40;;;;;;;4.47;2.05;;;;;;;-141.50;100.00;63355.56;5395566;26;20007;-81
2024/04/19 00:42:08;;;;;;;8.88;2.80;;;;;;;-141.50;100.00;63355.56;5411033;26;20366;-81
2024/04/19 00:44:35;;;;;;;8.48;2.35;;;;;;;-141.50;100.00;63355.56;5400673;26;20502;-81
2024/04/19 00:47:06;;;;;;;4.65;2.30;;;;;;;-141.50;100.00;63355.56;5400207;26;20410;-81
2024/04/19 00:49:33;;;;;;;3.90;1.90;;;;;;;-141.50;100.00;63355.56;5396950;26;20014;-82
2024/04/19 00:52:01;;;;;;;4.68;1.88;;;;;;;-141.50;100.00;63355.56;5400348;26;20014;-81
2024/04/19 00:54:28;;;;;;;9.15;2.00;;;;;;;-141.50;100.00;63355.56;5414583;26;20355;-81
2024/04/19 00:56:56;;;;;;;7.15;1.83;;;;;;;-141.50;100.00;63355.56;5405511;26;20448;-81
2024/04/19 00:59:24;;;;;;;5.55;2.00;;;;;;;-141.50;100.00;63355.56;5404657;26;20099;-81
2024/04/19 01:01:52;;;;;;;8.65;2.33;;;;;;;-141.50;100.00;63355.56;5400555;26;21160;-81
2024/04/19 01:04:21;;;;;;;4.82;2.60;;;;;;;-141.50;100.00;63355.56;5410359;26;20080;-81
2024/04/19 01:06:48;;;;;;;7.03;2.20;;;;;;;-141.50;100.00;63355.56;5398993;26;20464;-81
2024/04/19 01:09:15;;;;;;;5.45;2.30;;;;;;;-141.50;100.00;63355.56;5402999;26;20104;-82
2024/04/19 01:11:45;;;;;;;4.63;1.80;;;;;;;-141.50;100.00;63355.56;5391846;26;20057;-82
2024/04/19 01:14:13;;;;;;;8.40;2.17;;;;;;;-141.50;100.00;63355.56;5407280;26;20006;-81
2024/04/19 01:16:40;;;;;;;4.63;2.03;;;;;;;-141.50;100.00;63355.56;5406459;26;19996;-80
2024/04/19 01:19:08;;;;;;;5.47;2.10;;;;;;;-141.50;100.00;63355.56;5416594;26;20061;-80
2024/04/19 01:21:35;;;;;;;6.25;2.03;;;;;;;-141.50;100.00;63355.56;5408279;26;20003;-81
2024/04/19 01:24:15;;;;;;;5.75;1.92;;;;;;;-141.50;100.00;63355.56;5396467;26;20008;-82
2024/04/19 01:26:43;;;;;;;7.03;2.15;;;;;;;-141.50;100.00;63355.56;5391375;26;20008;-80
2024/04/19 01:29:09;;;;;;;3.85;1.70;;;;;;;-141.50;100.00;63355.56;5409823;26;20008;-81
2024/04/19 01:31:36;;;;;;;2.85;1.73;;;;;;;-141.50;100.00;63355.56;5392769;26;20022;-84
2024/04/19 01:34:04;;;;;;;4.43;1.90;;;;;;;-141.50;100.00;63355.56;5394733;26;20011;-80
2024/04/19 01:36:31;;;;;;;4.78;2.10;;;;;;;-141.50;100.00;63355.56;5409381;26;20008;-82
2024/04/19 01:39:01;;;;;;;3.90;1.67;;;;;;;-141.50;100.00;63355.56;5401021;26;20003;-84
2024/04/19 01:41:28;;;;;;;3.70;1.80;;;;;;;-141.50;100.00;63355.56;5398895;26;20046;-83
2024/04/19 01:43:55;;;;;;;4.80;1.83;;;;;;;-141.50;100.00;63355.56;5409567;26;20332;-79
2024/04/19 01:46:22;;;;;;;4.45;1.42;;;;;;;-141.50;100.00;63355.56;5408681;26;19999;-79
2024/04/19 01:48:49;;;;;;;5.65;1.85;;;;;;;-141.50;100.00;63355.56;5385209;26;20447;-84
2024/04/19 01:51:17;;;;;;;5.80;1.90;;;;;;;-141.50;100.00;63355.56;5405461;26;20020;-82
2024/04/19 01:53:43;;;;;;;3.95;1.45;;;;;;;-141.50;100.00;63355.56;5392299;26;20059;-80
2024/04/19 01:56:10;;;;;;;3.20;1.70;;;;;;;-141.50;100.00;63355.56;5412911;26;20003;-82
2024/04/19 01:58:41;;;;;;;3.58;1.88;;;;;;;-141.50;100.00;63355.56;5408833;26;20010;-80
2024/04/19 02:01:08;;;;;;;5.03;1.95;;;;;;;-141.50;100.00;63355.56;5407909;26;19999;-82
2024/04/19 02:03:38;;;;;;;4.95;1.90;;;;;;;-141.50;100.00;63355.56;5403863;26;20008;-81
2024/04/19 02:06:09;;;;;;;4.30;1.95;;;;;;;-141.50;100.00;63355.56;5402488;26;20073;-81
2024/04/19 02:08:36;;;;;;;7.53;2.13;;;;;;;-141.50;100.00;63355.56;5415511;26;20008;-82
2024/04/19 02:11:04;;;;;;;4.32;2.13;;;;;;;-141.50;100.00;63355.56;5415304;26;20023;-81
2024/04/19 02:13:31;;;;;;;5.30;2.00;;;;;;;-141.50;100.00;63355.56;5419100;26;20054;-82
2024/04/19 02:15:59;;;;;;;3.55;1.80;;;;;;;-141.50;100.00;63355.56;5414045;26;20464;-81
2024/04/19 02:18:26;;;;;;;4.65;1.98;;;;;;;-141.50;100.00;63355.56;5385638;26;20000;-81
2024/04/19 02:20:55;;;;;;;3.08;1.80;;;;;;;-141.50;100.00;63355.56;5403377;26;20016;-82
2024/04/19 02:23:34;;;;;;;6.60;1.92;;;;;;;-141.50;100.00;63355.56;5395234;26;20453;-82
2024/04/19 02:26:06;;;;;;;8.48;2.42;;;;;;;-141.50;100.00;63355.56;5394957;26;20019;-83
2024/04/19 02:31:22;;;;;;;3.83;1.70;;;;;;;-141.50;100.00;63355.56;5391566;26;20004;-80
2024/04/19 02:33:50;;;;;;;2.92;1.70;;;;;;;-141.50;100.00;63355.56;5405634;26;20343;-81
2024/04/19 02:36:17;;;;;;;6.15;1.92;;;;;;;-141.50;100.00;63355.56;5395897;26;20011;-81
2024/04/19 02:38:45;;;;;;;6.95;1.95;;;;;;;-141.50;100.00;63355.56;5402000;26;20134;-81
2024/04/19 02:41:12;;;;;;;5.78;2.10;;;;;;;-141.50;100.00;63355.56;5408441;26;19999;-80
2024/04/19 02:43:39;;;;;;;4.22;1.77;;;;;;;-141.50;100.00;63355.56;5400372;26;19999;-81
2024/04/19 02:46:06;;;;;;;4.75;1.83;;;;;;;-141.50;100.00;63355.56;5410466;26;20478;-81
2024/04/19 02:48:34;;;;;;;8.15;2.30;;;;;;;-141.50;100.00;63355.56;5421065;26;19999;-82
2024/04/19 02:51:02;;;;;;;3.63;1.58;;;;;;;-141.50;100.00;63355.56;5403487;26;20049;-81
2024/04/19 02:53:31;;;;;;;5.22;1.65;;;;;;;-141.50;100.00;63355.56;5413850;26;19999;-81
2024/04/19 02:55:59;;;;;;;3.75;1.80;;;;;;;-141.50;100.00;63355.56;5407576;26;20006;-82
2024/04/19 02:58:27;;;;;;;3.38;1.45;;;;;;;-141.50;100.00;63355.56;5392727;26;20508;-82
2024/04/19 03:00:54;;;;;;;2.78;1.67;;;;;;;-141.50;100.00;63355.56;5408617;26;20014;-82
2024/04/19 03:03:22;;;;;;;3.28;1.80;;;;;;;-141.50;100.00;63355.56;5374515;26;20018;-82
2024/04/19 03:05:53;;;;;;;6.55;1.65;;;;;;;-141.50;100.00;63355.56;5413187;26;19999;-81
2024/04/19 03:08:22;;;;;;;3.13;1.50;;;;;;;-141.50;100.00;63355.56;5410596;26;20011;-81
2024/04/19 03:10:49;;;;;;;3.22;1.50;;;;;;;-141.50;100.00;63355.56;5415963;26;20460;-81
2024/04/19 03:13:16;;;;;;;4.13;1.77;;;;;;;-141.50;100.00;63355.56;5400089;26;20577;-81
2024/04/19 03:15:44;;;;;;;8.00;1.75;;;;;;;-141.50;100.00;63355.56;5400348;26;20329;-80
2024/04/19 03:18:43;;;;;;;4.47;1.77;;;;;;;-141.50;100.00;63355.56;5399080;26;20361;-81
2024/04/19 03:21:10;;;;;;;2.75;1.60;;;;;;;-141.50;100.00;63355.56;5390731;26;20000;-81
2024/04/19 03:23:37;;;;;;;4.47;1.88;;;;;;;-141.50;100.00;63355.56;5414742;26;20007;-82
2024/04/19 03:26:05;;;;;;;3.13;1.60;;;;;;;-141.50;100.00;63355.56;5389771;26;20012;-81
2024/04/19 03:28:32;;;;;;;6.60;1.77;;;;;;;-141.50;100.00;63355.56;5407193;26;20444;-82
2024/04/19 03:30:59;;;;;;;1.92;1.48;;;;;;;-141.50;100.00;63355.56;5411130;26;20053;-81
2024/04/19 03:33:28;;;;;;;3.60;1.63;;;;;;;-141.50;100.00;63355.56;5396143;26;20094;-81
2024/04/19 03:35:56;;;;;;;6.10;1.77;;;;;;;-141.50;100.00;63355.56;5390133;26;20501;-80
2024/04/19 03:38:24;;;;;;;4.45;1.70;;;;;;;-141.50;100.00;63355.56;5397801;26;20004;-81
2024/04/19 03:40:55;;;;;;;3.10;1.80;;;;;;;-141.50;100.00;63355.56;5398763;26;20073;-83
2024/04/19 03:43:23;;;;;;;4.65;1.83;;;;;;;-141.50;100.00;63355.56;5408433;26;20436;-81
2024/04/19 03:45:51;;;;;;;3.60;1.50;;;;;;;-141.50;100.00;63355.56;5396955;26;20445;-82
2024/04/19 03:48:18;;;;;;;2.67;1.63;;;;;;;-141.50;100.00;63355.56;5404375;26;20011;-81
2024/04/19 03:50:46;;;;;;;3.50;1.65;;;;;;;-141.50;100.00;63355.56;5387505;26;20008;-80
2024/04/19 03:53:13;;;;;;;3.85;1.42;;;;;;;-141.50;100.00;63355.56;5398303;26;20510;-80
2024/04/19 03:55:40;;;;;;;5.38;2.00;;;;;;;-141.50;100.00;63355.56;5395017;26;20007;-82
2024/04/19 03:58:07;;;;;;;3.85;1.73;;;;;;;-141.50;100.00;63355.56;5398896;26;20536;-80
2024/04/19 04:00:40;;;;;;;7.10;1.77;;;;;;;-141.50;100.00;63355.56;5362752;26;20641;-81
2024/04/19 04:03:07;;;;;;;4.65;1.70;;;;;;;-141.50;100.00;63355.56;5412549;26;20344;-77
2024/04/19 04:05:38;;;;;;;7.55;2.33;;;;;;;-141.50;100.00;63355.56;5373425;26;20008;-78
2024/04/19 04:08:05;;;;;;;4.90;2.10;;;;;;;-141.50;100.00;63355.56;5400011;26;20538;-80
2024/04/19 04:10:32;;;;;;;3.58;1.83;;;;;;;-141.50;100.00;63355.56;5394891;26;20005;-79
2024/04/19 04:12:59;;;;;;;5.38;2.60;;;;;;;-141.50;100.00;63355.56;5402319;26;20024;-80
2024/04/19 04:15:27;;;;;;;4.68;2.35;;;;;;;-141.50;100.00;63355.56;5389668;26;20000;-82
2024/04/19 04:17:54;;;;;;;6.10;2.30;;;;;;;-141.50;100.00;63355.56;5391348;26;20002;-81
2024/04/19 04:20:21;;;;;;;3.47;1.95;;;;;;;-141.50;100.00;63355.56;5404657;26;20023;-82
2024/04/19 04:22:48;;;;;;;4.35;2.33;;;;;;;-141.50;100.00;63355.56;5410530;26;20328;-81
2024/04/19 04:25:15;;;;;;;5.25;2.33;;;;;;;-141.50;100.00;63355.56;5398688;26;20032;-81
2024/04/19 04:27:42;;;;;;;5.40;2.53;;;;;;;-141.50;100.00;63355.56;5403332;26;20019;-80
2024/04/19 04:30:10;;;;;;;5.00;2.50;;;;;;;-141.50;100.00;63355.56;5396470;26;19999;-81
2024/04/19 04:32:37;;;;;;;5.43;2.90;;;;;;;-141.50;100.00;63355.56;5408049;26;20080;-82
2024/04/19 04:35:04;;;;;;;6.28;2.53;;;;;;;-141.50;100.00;63355.56;5401992;26;20003;-78
2024/04/19 04:37:34;;;;;;;5.43;2.60;;;;;;;-141.50;100.00;63355.56;5404143;26;20015;-78
2024/04/19 04:40:02;;;;;;;7.95;2.90;;;;;;;-141.50;100.00;63355.56;5395548;26;20390;-78
2024/04/19 04:42:29;;;;;;;6.82;3.05;;;;;;;-141.50;100.00;63355.56;5396815;26;20008;-78
2024/04/19 04:44:56;;;;;;;8.43;3.00;;;;;;;-141.50;100.00;63355.56;5394753;26;20012;-77
2024/04/19 04:47:23;;;;;;;7.22;2.55;;;;;;;-141.50;100.00;63355.56;5386414;26;20007;-78
2024/04/19 04:49:54;;;;;;;6.75;3.03;;;;;;;-141.50;100.00;63355.56;5393685;26;20443;-78
2024/04/19 04:52:24;;;;;;;5.72;3.00;;;;;;;-141.50;100.00;63355.56;5398871;26;20016;-77
2024/04/19 04:54:51;;;;;;;7.45;3.10;;;;;;;-141.50;100.00;63355.56;5399530;26;20466;-80
2024/04/19 04:57:19;;;;;;;5.78;3.08;;;;;;;-141.50;100.00;63355.56;5396609;26;20051;-82
2024/04/19 04:59:46;;;;;;;7.82;3.30;;;;;;;-141.50;100.00;63355.56;5401541;26;20004;-82
2024/04/19 05:02:13;;;;;;;10.55;3.58;;;;;;;-141.50;100.00;63355.56;5413915;26;20392;-84
2024/04/19 05:04:44;;;;;;;7.72;3.35;;;;;;;-141.50;100.00;63355.56;5412084;26;20065;-80
2024/04/19 05:07:11;;;;;;;7.07;3.50;;;;;;;-141.50;100.00;63355.56;5403013;26;20004;-79
2024/04/19 05:09:38;;;;;;;9.50;3.95;;;;;;;-141.50;100.00;63355.56;5409579;26;20011;-82
2024/04/19 05:12:05;;;;;;;10.35;4.40;;;;;;;-141.50;100.00;63355.56;5392984;26;20003;-80
2024/04/19 05:14:33;;;;;;;7.65;4.53;;;;;;;-141.50;100.00;63355.56;5405921;26;20080;-80
2024/04/19 05:17:00;;;;;;;11.25;4.97;;;;;;;-141.50;100.00;63355.56;5406544;26;19995;-80
2024/04/19 05:19:26;;;;;;;9.95;4.97;;;;;;;-141.50;100.00;63355.56;5403752;26;20007;-82
2024/04/19 05:21:54;;;;;;;10.80;4.80;;;;;;;-141.50;100.00;63355.56;5407761;26;20007;-80
2024/04/19 05:24:22;;;;;;;9.07;4.82;;;;;;;-141.50;100.00;63355.56;5386293;26;20016;-83
2024/04/19 05:26:49;;;;;;;9.57;4.82;;;;;;;-141.50;100.00;63355.56;5391599;26;20504;-82
2024/04/19 05:29:17;;;;;;;8.68;5.07;;;;;;;-141.50;100.00;63355.56;5407188;26;20396;-83
2024/04/19 05:31:44;;;;;;;9.18;5.03;;;;;;;-141.50;100.00;63355.56;5410358;26;20089;-80
2024/04/19 05:34:11;;;;;;;8.77;4.95;;;;;;;-141.50;100.00;63355.56;5412400;26;20024;-81
2024/04/19 05:36:38;;;;;;;12.05;4.78;;;;;;;-141.50;100.00;63355.56;5398948;26;20004;-82
2024/04/19 05:39:05;;;;;;;9.90;4.72;;;;;;;-141.50;100.00;63355.56;5403164;26;20405;-81
2024/04/19 05:41:32;;;;;;;8.98;4.75;;;;;;;-141.50;100.00;63355.56;5411089;26;20335;-78
2024/04/19 05:43:59;;;;;;;11.40;4.82;;;;;;;-141.50;100.00;63355.56;5411671;26;20011;-81
2024/04/19 05:46:26;;;;;;;9.48;5.03;;;;;;;-141.50;100.00;63355.56;5382967;26;20023;-81
2024/04/19 05:48:53;;;;;;;10.18;4.97;;;;;;;-141.50;100.00;63355.56;5399035;26;20562;-79
2024/04/19 05:51:21;;;;;;;9.20;4.70;;;;;;;-141.50;100.00;63355.56;5404808;26;20743;-81
2024/04/19 05:53:48;;;;;;;9.38;4.43;;;;;;;-141.50;100.00;63355.56;5405018;26;20008;-81
2024/04/19 05:56:15;;;;;;;7.85;4.43;;;;;;;-141.50;100.00;63355.56;5365612;26;20039;-81
2024/04/19 05:58:44;;;;;;;10.45;5.32;;;;;;;-141.50;100.00;63355.56;5402065;26;20014;-81
2024/04/19 06:01:11;;;;;;;9.13;4.18;;;;;;;-141.50;100.00;63355.56;5403024;26;20010;-82
2024/04/19 06:03:39;;;;;;;9.70;4.70;;;;;;;-141.50;100.00;63355.56;5396372;26;20012;-81
2024/04/19 06:06:06;;;;;;;7.68;4.53;;;;;;;-141.50;100.00;63355.56;5380910;26;20004;-80
2024/04/19 06:08:33;;;;;;;8.77;4.60;;;;;;;-141.50;100.00;63355.56;5402617;26;20011;-79
2024/04/19 06:11:00;;;;;;;11.20;5.10;;;;;;;-141.50;100.00;63355.56;5408266;26;20022;-81
2024/04/19 06:13:27;;;;;;;12.10;4.43;;;;;;;-141.50;100.00;63355.56;5377893;26;20081;-82
2024/04/19 06:15:54;;;;;;;10.02;3.97;;;;;;;-141.50;100.00;63355.56;5404716;26;20008;-82
2024/04/19 06:18:22;;;;;;;11.02;5.10;;;;;;;-141.50;100.00;63355.56;5400834;26;20406;-81
2024/04/19 06:20:49;;;;;;;10.38;4.22;;;;;;;-141.50;100.00;63355.56;5402753;26;20497;-80
2024/04/19 06:23:16;;;;;;;8.68;4.78;;;;;;;-141.50;100.00;63355.56;5401940;26;20440;-81
2024/04/19 06:25:43;;;;;;;9.25;4.35;;;;;;;-141.50;100.00;63355.56;5406547;26;20076;-81
2024/04/19 06:28:10;;;;;;;12.20;4.45;;;;;;;-141.50;100.00;63355.56;5407246;26;20410;-82
2024/04/19 06:30:37;;;;;;;10.23;5.10;;;;;;;-141.50;100.00;63355.56;5397736;26;20396;-81
2024/04/19 06:33:04;;;;;;;10.02;4.43;;;;;;;-141.50;100.00;63355.56;5404049;26;20009;-82
2024/04/19 06:35:33;;;;;;;10.50;4.28;;;;;;;-141.50;100.00;63355.56;5410660;26;20467;-81
2024/04/19 06:38:00;;;;;;;8.73;4.18;;;;;;;-141.50;100.00;63355.56;5356030;26;20016;-81
2024/04/19 06:40:27;;;;;;;6.70;4.22;;;;;;;-141.50;100.00;63355.56;5399098;26;20023;-83
2024/04/19 06:42:55;;;;;;;8.50;3.83;;;;;;;-141.50;100.00;63355.56;5411342;26;20358;-83
2024/04/19 06:45:22;;;;;;;8.45;4.10;;;;;;;-141.50;100.00;63355.56;5405783;26;20470;-82
2024/04/19 06:47:49;;;;;;;8.50;3.88;;;;;;;-141.50;100.00;63355.56;5400386;26;20005;-83
2024/04/19 06:50:17;;;;;;;7.40;3.85;;;;;;;-141.50;100.00;63355.56;5399569;26;20012;-83
2024/04/19 06:52:43;;;;;;;6.90;3.65;;;;;;;-141.50;100.00;63355.56;5394144;26;20453;-79
2024/04/19 06:55:11;;;;;;;6.47;3.25;;;;;;;-141.50;100.00;63355.56;5386394;26;20540;-80
2024/04/19 06:57:38;;;;;;;7.68;3.38;;;;;;;-141.50;100.00;63355.56;5403760;26;20019;-81
2024/04/19 07:00:06;;;;;;;7.68;3.38;;;;;;;-141.50;100.00;63355.56;5398969;26;20018;-81
2024/04/19 07:02:53;;;;;;;5.45;3.13;;;;;;;-141.50;100.00;63355.56;5394223;26;20007;-83
2024/04/19 07:05:20;;;;;;;5.43;3.15;;;;;;;-141.50;100.00;63355.56;5397288;26;20477;-83
2024/04/19 07:07:48;;;;;;;5.10;2.85;;;;;;;-141.50;100.00;63355.56;5385708;26;20333;-80
2024/04/19 07:10:16;;;;;;;7.78;3.38;;;;;;;-141.50;100.00;63355.56;5404409;26;20011;-80
2024/04/19 07:12:43;;;;;;;6.78;3.08;;;;;;;-141.50;100.00;63355.56;5380538;26;20008;-83
2024/04/19 07:15:10;;;;;;;8.05;3.00;;;;;;;-141.50;100.00;63355.56;5383422;26;20008;-82
2024/04/19 07:17:39;;;;;;;5.90;3.03;;;;;;;-141.50;100.00;63355.56;5386249;26;20016;-81
2024/04/19 07:20:07;;;;;;;5.65;3.42;;;;;;;-141.50;100.00;63355.56;5394390;26;20034;-81
2024/04/19 07:22:35;;;;;;;6.47;3.50;;;;;;;-141.50;100.00;63355.56;5395973;26;20004;-81
2024/04/19 07:25:03;;;;;;;5.50;3.47;;;;;;;-141.50;100.00;63355.56;5405347;26;20019;-81
2024/04/19 07:27:33;;;;;;;8.27;3.90;;;;;;;-141.50;100.00;63355.56;5394999;26;20042;-81
2024/04/19 07:30:12;;;;;;;6.00;3.50;;;;;;;-141.50;100.00;63355.56;5391328;26;20003;-81
2024/04/19 07:32:39;;;;;;;6.53;3.95;;;;;;;-141.50;100.00;63355.56;5394145;26;20395;-81
2024/04/19 07:35:06;;;;;;;7.07;3.35;;;;;;;-141.50;100.00;63355.56;5380554;26;20078;-78
2024/04/19 07:37:33;;;;;;;7.05;3.53;;;;;;;-141.50;100.00;63355.56;5397070;26;20014;-80
2024/04/19 07:40:00;;;;;;;10.68;4.13;;;;;;;-141.50;100.00;63355.56;5404975;26;20018;-81
2024/04/19 07:42:32;;;;;;;9.55;4.40;;;;;;;-141.50;100.00;63355.56;5382653;26;20084;-80
2024/04/19 07:45:00;;;;;;;8.50;4.32;;;;;;;-141.50;100.00;63355.56;5387934;26;20051;-80
2024/04/19 07:47:27;;;;;;;6.82;3.88;;;;;;;-141.50;100.00;63355.56;5395748;26;20019;-82
2024/04/19 07:49:55;;;;;;;6.68;3.92;;;;;;;-141.50;100.00;63355.56;5398590;26;20031;-80
2024/04/19 07:52:22;;;;;;;6.45;3.38;;;;;;;-141.50;100.00;63355.56;5400639;26;20410;-81
2024/04/19 07:54:51;;;;;;;6.53;3.40;;;;;;;-141.50;100.00;63355.56;5386512;26;20008;-79
2024/04/19 07:57:19;;;;;;;10.93;3.80;;;;;;;-141.50;100.00;63355.56;5391320;26;20509;-79
2024/04/19 07:59:48;;;;;;;6.88;3.30;;;;;;;-141.50;100.00;63355.56;5397042;26;20048;-80
2024/04/19 08:02:17;;;;;;;8.45;3.15;;;;;;;-141.50;100.00;63355.56;5412611;26;20019;-81
2024/04/19 08:04:44;;;;;;;4.85;2.55;;;;;;;-141.50;100.00;63355.56;5372208;26;20012;-81
2024/04/19 08:07:12;;;;;;;6.47;2.90;;;;;;;-141.50;100.00;63355.56;5407493;26;20452;-80
2024/04/19 08:09:54;;;;;;;4.50;2.88;;;;;;;-141.50;100.00;63355.56;5398385;26;20000;-80
2024/04/19 08:12:21;;;;;;;4.90;2.88;;;;;;;-141.50;100.00;63355.56;5392546;26;20406;-81
2024/04/19 08:14:48;;;;;;;5.07;2.90;;;;;;;-141.50;100.00;63355.56;5387858;26;20081;-80
2024/04/19 08:17:16;;;;;;;4.95;2.55;;;;;;;-141.50;100.00;63355.56;5401529;26;20074;-81
2024/04/19 08:19:43;;;;;;;5.97;2.60;;;;;;;-141.50;100.00;63355.56;5405512;26;20014;-81
2024/04/19 08:22:11;;;;;;;5.05;2.78;;;;;;;-141.50;100.00;63355.56;5412266;26;20004;-81
2024/04/19 08:24:38;;;;;;;5.13;2.75;;;;;;;-141.50;100.00;63355.56;5415750;26;20008;-80
2024/04/19 08:27:05;;;;;;;4.45;2.55;;;;;;;-141.50;100.00;63355.56;5397738;26;20011;-81
2024/04/19 08:29:32;;;;;;;4.30;2.58;;;;;;;-141.50;100.00;63355.56;5390829;26;20005;-81
2024/04/19 08:32:03;;;;;;;5.32;2.30;;;;;;;-141.50;100.00;63355.56;5409988;26;20469;-80
2024/04/19 08:34:31;;;;;;;9.40;2.33;;;;;;;-141.50;100.00;63355.56;5414777;26;20085;-80
2024/04/19 08:36:58;;;;;;;3.05;2.20;;;;;;;-141.50;100.00;63355.56;5395341;26;20023;-80
2024/04/19 08:39:25;;;;;;;3.08;1.77;;;;;;;-141.50;100.00;63355.56;5391468;26;20000;-81
2024/04/19 08:41:58;;;;;;;3.10;2.08;;;;;;;-141.50;100.00;63355.56;5391863;26;20010;-79
2024/04/19 08:44:26;;;;;;;3.65;2.00;;;;;;;-141.50;100.00;63355.56;5412576;26;20000;-81
2024/04/19 08:46:55;;;;;;;5.05;1.98;;;;;;;-141.50;100.00;63355.56;5401671;26;19996;-81
2024/04/19 08:49:23;;;;;;;4.35;2.15;;;;;;;-141.50;100.00;63355.56;5402254;26;20019;-80
2024/04/19 08:51:51;;;;;;;3.15;2.00;;;;;;;-141.50;100.00;63355.56;5405334;26;20012;-79
2024/04/19 08:54:41;;;;;;;3.70;2.08;;;;;;;-141.50;100.00;63355.56;5402043;26;20449;-79
2024/04/19 08:57:10;;;;;;;2.65;1.63;;;;;;;-141.50;100.00;63355.56;5398740;26;20077;-78
2024/04/19 08:59:37;;;;;;;2.55;1.80;;;;;;;-141.50;100.00;63355.56;5399212;26;20074;-79
2024/04/19 09:02:04;;;;;;;3.00;2.10;;;;;;;-141.50;100.00;63355.56;5396536;26;20000;-81
2024/04/19 09:04:32;;;;;;;3.75;1.85;;;;;;;-141.50;100.00;63355.56;5413074;26;20024;-80
2024/04/19 09:06:59;;;;;;;2.88;1.85;;;;;;;-141.50;100.00;63355.56;5411066;26;20004;-81
2024/04/19 09:09:27;;;;;;;2.72;1.60;;;;;;;-141.50;100.00;63355.56;5398367;26;20004;-79
2024/04/19 09:11:55;;;;;;;2.75;1.55;;;;;;;-141.50;100.00;63355.56;5397125;26;20011;-80
2024/04/19 09:14:22;;;;;;;2.50;1.80;;;;;;;-141.50;100.00;63355.56;5389539;26;20044;-79
2024/04/19 09:16:49;;;;;;;4.43;1.95;;;;;;;-141.50;100.00;63355.56;5406081;26;20369;-80
2024/04/19 09:19:16;;;;;;;2.25;1.50;;;;;;;-141.50;100.00;63355.56;5396024;26;20016;-79
2024/04/19 09:21:47;;;;;;;2.42;1.60;;;;;;;-141.50;100.00;63355.56;5405469;26;20013;-79
2024/04/19 09:24:15;;;;;;;2.88;1.42;;;;;;;-141.50;100.00;63355.56;5393107;26;20003;-80
2024/04/19 09:26:44;;;;;;;2.22;1.50;;;;;;;-141.50;100.00;63355.56;5415260;26;20010;-82
2024/04/19 09:29:11;;;;;;;3.22;1.83;;;;;;;-141.50;100.00;63355.56;5404311;26;20449;-80
2024/04/19 09:31:42;;;;;;;4.53;1.70;;;;;;;-141.50;100.00;63355.56;5407581;26;20028;-83
2024/04/19 09:34:14;;;;;;;1.90;1.23;;;;;;;-141.50;100.00;63355.56;5402761;26;19996;-82
2024/04/19 09:36:46;;;;;;;2.53;1.58;;;;;;;-141.50;100.00;63355.56;5398104;26;20044;-82
2024/04/19 09:39:14;;;;;;;2.63;1.52;;;;;;;-141.50;100.00;63355.56;5395194;26;20472;-80
2024/04/19 09:41:41;;;;;;;2.63;1.70;;;;;;;-141.50;100.00;63355.56;5401925;26;20031;-82
2024/04/19 09:44:14;;;;;;;2.28;1.80;;;;;;;-141.50;100.00;63355.56;5405387;26;20003;-82
2024/04/19 09:46:48;;;;;;;2.40;1.80;;;;;;;-141.50;100.00;63355.56;5402519;26;20008;-80
2024/04/19 09:49:18;;;;;;;4.65;1.60;;;;;;;-141.50;100.00;63355.56;5392323;26;20031;-81
2024/04/19 09:51:47;;;;;;;3.30;1.60;;;;;;;-141.50;100.00;63355.56;5405417;26;20011;-82
2024/04/19 09:54:19;;;;;;;2.75;1.67;;;;;;;-141.50;100.00;63355.56;5402099;26;20033;-81
2024/04/19 09:56:49;;;;;;;1.85;1.40;;;;;;;-141.50;100.00;63355.56;5397047;26;20000;-81
2024/04/19 09:59:18;;;;;;;3.30;1.60;;;;;;;-141.50;100.00;63355.56;5393260;26;20019;-81
2024/04/19 10:01:46;;;;;;;3.08;1.67;;;;;;;-141.50;100.00;63355.56;5398998;26;20394;-80
2024/04/19 10:04:14;;;;;;;2.25;1.58;;;;;;;-141.50;100.00;63355.56;5400476;26;20453;-80
2024/04/19 10:06:43;;;;;;;2.67;1.70;;;;;;;-141.50;100.00;63355.56;5402837;26;20024;-79
2024/04/19 10:09:14;;;;;;;2.05;1.45;;;;;;;-141.50;100.00;63355.56;5400749;26;20018;-81
2024/04/19 10:11:44;;;;;;;2.60;1.38;;;;;;;-141.50;100.00;63355.56;5424161;26;20008;-80
2024/04/19 10:14:12;;;;;;;2.67;1.63;;;;;;;-141.50;100.00;63355.56;5392287;26;20020;-79
2024/04/19 10:16:40;;;;;;;2.92;1.50;;;;;;;-141.50;100.00;63355.56;5391452;26;20414;-80
2024/04/19 10:19:07;;;;;;;3.35;1.40;;;;;;;-141.50;100.00;63355.56;5391740;26;20043;-82
2024/04/19 10:21:41;;;;;;;2.85;1.52;;;;;;;-141.50;100.00;63355.56;5393609;26;20084;-80
2024/04/19 10:24:16;;;;;;;1.70;1.25;;;;;;;-141.50;100.00;63355.56;5409252;26;20081;-80
2024/04/19 10:26:50;;;;;;;1.70;1.27;;;;;;;-141.50;100.00;63355.56;5396234;26;20395;-79
2024/04/19 10:29:18;;;;;;;1.80;1.10;;;;;;;-141.50;100.00;63355.56;5395182;26;20085;-81
2024/04/19 10:31:50;;;;;;;1.90;1.27;;;;;;;-141.50;100.00;63355.56;5393169;26;20012;-81
2024/04/19 10:34:18;;;;;;;1.92;1.20;;;;;;;-141.50;100.00;63355.56;5396598;26;20008;-80
2024/04/19 10:36:46;;;;;;;1.92;1.20;;;;;;;-141.50;100.00;63355.56;5406613;26;20530;-80
2024/04/19 10:39:13;;;;;;;1.88;1.10;;;;;;;-141.50;100.00;63355.56;5410419;26;20003;-80
2024/04/19 10:41:49;;;;;;;1.05;0.73;;;;;;;-141.50;100.00;63355.56;5388333;26;20162;-80
2024/04/19 10:44:16;;;;;;;;;;;;;;;-141.50;100.00;63355.56;5400620;26;20008;-80
2024/04/19 10:46:44;;;;;;;2.28;1.00;;;;;;;-141.50;100.00;63355.56;5399377;26;19931;-79
2024/04/19 10:49:11;;;;;;;3.15;0.95;;;;;;;-141.50;100.00;63355.56;5393477;26;19999;-78
2024/04/19 10:51:39;;;;;;;2.30;1.30;;;;;;;-141.50;100.00;63355.56;5403660;26;20008;-78
2024/04/19 10:54:07;;;;;;;2.15;1.33;;;;;;;-141.50;100.00;63355.56;5406435;26;20010;-78
2024/04/19 10:56:37;;;;;;;2.63;1.23;;;;;;;-141.50;100.00;63355.56;5401243;26;20011;-80
2024/04/19 10:59:04;;;;;;;1.40;1.00;;;;;;;-141.50;100.00;63355.56;5400847;26;20099;-79
2024/04/19 11:01:31;;;;;;;1.95;0.80;;;;;;;-141.50;100.00;63355.56;5399403;26;20461;-79
2024/04/19 11:04:00;;;;;;;4.78;0.95;;;;;;;-141.50;100.00;63355.56;5390051;26;20003;-79
2024/04/19 11:06:29;;;;;;;3.20;0.80;;;;;;;-141.50;100.00;63355.56;5401333;26;20428;-80
2024/04/19 11:08:56;;;;;;;1.00;0.60;;;;;;;-141.50;100.00;63355.56;5401379;26;20115;-80
2024/04/19 11:11:24;;;;;;;0.80;0.50;;;;;;;-141.50;100.00;63355.56;5406760;26;20003;-78
2024/04/19 11:13:51;;;;;;;0.90;0.52;;;;;;;-141.50;100.00;63355.56;5395232;26;20018;-81
2024/04/19 11:16:18;;;;;;;1.15;0.80;;;;;;;-141.50;100.00;63355.56;5409226;26;20026;-80